Time;durP1;ratioP1;P1;durP2;ratioP2;P2;SDS_P1;SDS_P2;PMS_P1;PMS_P2;Temp;Humidity;BMP_temperature;BMP_pressure;BME280_temperature;BME280_humidity;BME280_pressure;Samples;Min_cycle;Max_cycle;Signal;HPM_P1;HPM_P2
2022/07/29 00:00:44;;;;;;;;;;;;;;;13.71;100.00;100819.41;3054885;19;900;-52
2022/07/29 00:01:49;;;;;;;;;;;;;;;13.72;100.00;100822.97;3054860;19;1865;-51
2022/07/29 00:02:50;;;;;;;;;;;;;;;13.72;100.00;100818.47;3057578;19;972;-51
2022/07/29 00:03:55;;;;;;;;;;;;;;;13.69;100.00;100824.03;3058767;19;952;-53
2022/07/29 00:04:57;;;;;;;;;;;;;;;13.69;100.00;100818.66;3058925;19;775;-51
2022/07/29 00:06:02;;;;;;;;;;;;;;;13.68;100.00;100814.25;3058825;19;999;-48
2022/07/29 00:07:04;;;;;;;;;;;;;;;13.69;100.00;100819.53;3058503;19;861;-51
2022/07/29 00:08:08;;;;;;;;;;;;;;;13.69;100.00;100824.03;3058546;19;1563;-49
2022/07/29 00:09:13;;;;;;;;;;;;;;;13.67;100.00;100823.28;3058588;19;964;-51
2022/07/29 00:10:17;;;;;;;;;;;;;;;13.65;100.00;100823.38;3058539;19;1139;-51
2022/07/29 00:11:19;;;;;;;;;;;;;;;13.63;100.00;100825.31;3057969;19;889;-50
2022/07/29 00:12:24;;;;;;;;;;;;;;;13.61;100.00;100823.72;3057892;19;1116;-51
2022/07/29 00:13:27;;;;;;;;;;;;;;;13.61;100.00;100827.25;3058840;19;1177;-52
2022/07/29 00:14:35;;;;;;;;;;;;;;;13.61;100.00;100821.03;3058505;19;1028;-52
2022/07/29 00:15:37;;;;;;;;;;;;;;;13.59;100.00;100818.44;3058848;19;1012;-52
2022/07/29 00:16:42;;;;;;;;;;;;;;;13.58;100.00;100815.88;3058601;19;1170;-52
2022/07/29 00:17:44;;;;;;;;;;;;;;;13.58;100.00;100823.91;3058801;19;723;-49
2022/07/29 00:18:48;;;;;;;;;;;;;;;13.56;100.00;100812.44;3058245;19;965;-49
2022/07/29 00:19:50;;;;;;;;;;;;;;;13.55;100.00;100824.13;3058646;19;1103;-50
2022/07/29 00:20:54;;;;;;;;;;;;;;;13.52;100.00;100821.66;3058553;19;897;-48
2022/07/29 00:21:56;;;;;;;;;;;;;;;13.51;100.00;100818.13;3058215;19;1847;-49
2022/07/29 00:23:01;;;;;;;;;;;;;;;13.49;100.00;100830.78;3058369;19;1035;-52
2022/07/29 00:24:03;;;;;;;;;;;;;;;13.49;100.00;100822.72;3058692;19;921;-52
2022/07/29 00:25:08;;;;;;;;;;;;;;;13.47;100.00;100818.44;3058280;19;910;-49
2022/07/29 00:26:10;;;;;;;;;;;;;;;13.47;100.00;100829.16;3058577;19;1015;-51
2022/07/29 00:27:14;;;;;;;;;;;;;;;13.46;100.00;100827.44;3058307;19;1653;-50
2022/07/29 00:28:16;;;;;;;;;;;;;;;13.44;100.00;100824.84;3058467;19;1039;-49
2022/07/29 00:29:20;;;;;;;;;;;;;;;13.44;100.00;100826.66;3058519;19;984;-51
2022/07/29 00:30:37;;;;;;;;;;;;;;;13.42;100.00;100821.41;3058231;19;1072;-50
2022/07/29 00:31:42;;;;;;;;;;;;;;;13.42;100.00;100825.91;3058440;19;1179;-53
2022/07/29 00:32:44;;;;;;;;;;;;;;;13.39;100.00;100824.31;3058428;19;889;-51
2022/07/29 00:33:48;;;;;;;;;;;;;;;13.38;100.00;100813.69;3058512;19;857;-51
2022/07/29 00:36:07;;;;;;;;;;;;;;;13.39;100.00;100821.66;3058214;19;778;-49
2022/07/29 00:37:09;;;;;;;;;;;;;;;13.40;100.00;100819.81;3058157;19;1762;-50
2022/07/29 00:38:14;;;;;;;;;;;;;;;13.41;100.00;100818.84;3058428;19;980;-51
2022/07/29 00:39:16;;;;;;;;;;;;;;;13.40;100.00;100817.13;3058444;19;877;-49
2022/07/29 00:40:20;;;;;;;;;;;;;;;13.39;100.00;100816.28;3058101;19;981;-50
2022/07/29 00:41:24;;;;;;;;;;;;;;;13.40;100.00;100817.13;3057483;19;1186;-50
2022/07/29 00:42:28;;;;;;;;;;;;;;;13.40;100.00;100811.78;3057737;19;1838;-51
2022/07/29 00:43:33;;;;;;;;;;;;;;;13.39;100.00;100810.06;3057922;19;1307;-50
2022/07/29 00:44:38;;;;;;;;;;;;;;;13.40;100.00;100807.28;3058550;19;971;-50
2022/07/29 00:45:43;;;;;;;;;;;;;;;13.39;100.00;100804.69;3058198;19;841;-50
2022/07/29 00:46:45;;;;;;;;;;;;;;;13.39;100.00;100812.75;3058361;19;921;-48
2022/07/29 00:47:50;;;;;;;;;;;;;;;13.38;100.00;100793.13;3058148;19;936;-51
2022/07/29 00:48:51;;;;;;;;;;;;;;;13.38;100.00;100802.97;3058187;19;897;-49
2022/07/29 00:49:56;;;;;;;;;;;;;;;13.39;100.00;100802.00;3057462;19;1518;-55
2022/07/29 00:51:01;;;;;;;;;;;;;;;13.37;100.00;100806.63;3057495;19;782;-49
2022/07/29 00:52:06;;;;;;;;;;;;;;;13.37;100.00;100801.25;3057904;19;933;-50
2022/07/29 00:53:10;;;;;;;;;;;;;;;13.36;100.00;100799.53;3057419;19;1105;-51
2022/07/29 00:54:12;;;;;;;;;;;;;;;13.35;100.00;100793.31;3057024;19;957;-52
2022/07/29 00:55:17;;;;;;;;;;;;;;;13.34;100.00;100803.19;3057540;19;841;-50
2022/07/29 00:56:19;;;;;;;;;;;;;;;13.33;100.00;100806.81;3057313;19;988;-52
2022/07/29 00:57:24;;;;;;;;;;;;;;;13.32;100.00;100804.25;3058087;19;1104;-51
2022/07/29 00:58:26;;;;;;;;;;;;;;;13.30;100.00;100801.66;3057658;19;1355;-50
2022/07/29 00:59:30;;;;;;;;;;;;;;;13.29;100.00;100799.94;3058213;19;1191;-52
2022/07/29 01:00:40;;;;;;;;;;;;;;;13.28;100.00;100803.56;3057911;19;1032;-51
2022/07/29 01:01:42;;;;;;;;;;;;;;;13.28;100.00;100800.06;3058035;19;1135;-51
2022/07/29 01:02:48;;;;;;;;;;;;;;;13.27;100.00;100791.16;3056419;19;1857;-52
2022/07/29 01:03:49;;;;;;;;;;;;;;;13.25;100.00;100805.63;3057523;19;953;-52
2022/07/29 01:04:55;;;;;;;;;;;;;;;13.25;100.00;100803.81;3058003;19;907;-53
2022/07/29 01:05:59;;;;;;;;;;;;;;;13.24;100.00;100798.56;3057424;19;936;-51
2022/07/29 01:07:01;;;;;;;;;;;;;;;13.24;100.00;100802.09;3057133;19;996;-53
2022/07/29 01:08:06;;;;;;;;;;;;;;;13.26;100.00;100791.28;3058064;19;1018;-52
2022/07/29 01:09:09;;;;;;;;;;;;;;;13.26;100.00;100794.81;3057904;19;921;-51
2022/07/29 01:10:13;;;;;;;;;;;;;;;13.26;100.00;100799.31;3056965;19;1683;-50
2022/07/29 01:11:15;;;;;;;;;;;;;;;13.26;100.00;100800.16;3057321;19;988;-50
2022/07/29 01:12:22;;;;;;;;;;;;;;;13.18;100.00;100781.03;3057108;19;1675;-49
2022/07/29 01:13:27;;;;;;;;;;;;;;;13.25;100.00;100793.09;3056206;19;1246;-48
2022/07/29 01:14:29;;;;;;;;;;;;;;;13.27;100.00;100796.53;3056880;19;826;-49
2022/07/29 01:15:33;;;;;;;;;;;;;;;13.24;100.00;100788.69;3056937;19;1366;-49
2022/07/29 01:16:39;;;;;;;;;;;;;;;13.26;100.00;100796.63;3056998;19;1384;-51
2022/07/29 01:18:02;;;;;;;;;;;;;;;13.26;100.00;100793.94;3056945;19;933;-53
2022/07/29 01:19:07;;;;;;;;;;;;;;;13.27;100.00;100791.16;3057252;19;944;-50
2022/07/29 01:20:14;;;;;;;;;;;;;;;13.26;100.00;100791.28;3057002;19;972;-54
2022/07/29 01:21:50;;;;;;;;;;;;;;;13.25;100.00;100793.09;3057063;19;911;-48
2022/07/29 01:23:14;;;;;;;;;;;;;;;13.26;100.00;100784.09;3055812;19;1869;-51
2022/07/29 01:24:30;;;;;;;;;;;;;;;13.25;100.00;100787.72;3056928;19;874;-50
2022/07/29 01:25:35;;;;;;;;;;;;;;;13.25;100.00;100785.03;3057128;19;988;-53
2022/07/29 01:26:50;;;;;;;;;;;;;;;13.24;100.00;100790.50;3057966;19;959;-51
2022/07/29 01:28:12;;;;;;;;;;;;;;;13.24;100.00;100788.69;3057723;19;999;-50
2022/07/29 01:29:16;;;;;;;;;;;;;;;13.23;100.00;100788.78;3055790;19;1488;-51
2022/07/29 01:30:19;;;;;;;;;;;;;;;13.22;100.00;100781.72;3057540;19;1070;-52
2022/07/29 01:31:44;;;;;;;;;;;;;;;13.19;100.00;100785.44;3056656;19;1014;-53
2022/07/29 01:33:04;;;;;;;;;;;;;;;13.21;100.00;100790.72;3057381;19;861;-52
2022/07/29 01:34:07;;;;;;;;;;;;;;;13.19;100.00;100781.91;3056583;19;1006;-53
2022/07/29 01:35:13;;;;;;;;;;;;;;;13.19;100.00;100782.78;3056714;19;920;-53
2022/07/29 01:36:35;;;;;;;;;;;;;;;13.17;100.00;100784.69;3056584;19;871;-52
2022/07/29 01:38:00;;;;;;;;;;;;;;;13.21;100.00;100780.84;3055565;19;1462;-53
2022/07/29 01:39:22;;;;;;;;;;;;;;;13.23;100.00;100783.44;3057454;19;1814;-49
2022/07/29 01:40:37;;;;;;;;;;;;;;;13.24;100.00;100780.66;3057455;19;936;-51
2022/07/29 01:41:40;;;;;;;;;;;;;;;13.24;100.00;100787.81;3055787;19;1507;-48
2022/07/29 01:42:45;;;;;;;;;;;;;;;13.24;100.00;100786.00;3056528;19;996;-52
2022/07/29 01:43:47;;;;;;;;;;;;;;;13.24;100.00;100782.47;3055721;19;1838;-51
2022/07/29 01:44:57;;;;;;;;;;;;;;;13.23;100.00;100783.44;3057571;19;995;-51
2022/07/29 01:46:00;;;;;;;;;;;;;;;13.23;100.00;100780.75;3056505;19;901;-51
2022/07/29 01:47:08;;;;;;;;;;;;;;;13.23;100.00;100788.78;3056903;19;889;-52
2022/07/29 01:48:12;;;;;;;;;;;;;;;13.21;100.00;100791.56;3057380;19;882;-50
2022/07/29 01:49:17;;;;;;;;;;;;;;;13.21;100.00;100783.53;3057436;19;944;-49
2022/07/29 01:50:19;;;;;;;;;;;;;;;13.22;100.00;100777.22;3057400;19;842;-48
2022/07/29 01:51:27;;;;;;;;;;;;;;;13.21;100.00;100786.22;3057654;19;928;-50
2022/07/29 01:52:34;;;;;;;;;;;;;;;13.21;100.00;100780.84;3056382;19;968;-52
2022/07/29 01:53:45;;;;;;;;;;;;;;;13.19;100.00;100788.13;3056658;19;1043;-49
2022/07/29 01:54:55;;;;;;;;;;;;;;;13.19;100.00;100772.06;3056330;19;951;-49
2022/07/29 01:55:59;;;;;;;;;;;;;;;13.21;100.00;100769.28;3056481;19;1000;-51
2022/07/29 01:57:01;;;;;;;;;;;;;;;13.23;100.00;100772.72;3056385;19;1016;-51
2022/07/29 01:58:06;;;;;;;;;;;;;;;13.22;100.00;100782.56;3056650;19;932;-51
2022/07/29 01:59:08;;;;;;;;;;;;;;;13.22;100.00;100771.84;3056404;19;1655;-50
2022/07/29 02:00:14;;;;;;;;;;;;;;;13.23;100.00;100768.22;3056559;19;889;-50
2022/07/29 02:01:16;;;;;;;;;;;;;;;13.24;100.00;100769.06;3056440;19;890;-52
2022/07/29 02:02:20;;;;;;;;;;;;;;;13.22;100.00;100769.16;3056332;19;940;-51
2022/07/29 02:03:25;;;;;;;;;;;;;;;13.22;100.00;100766.50;3056073;19;1861;-50
2022/07/29 02:04:27;;;;;;;;;;;;;;;13.21;100.00;100778.16;3057145;19;960;-49
2022/07/29 02:05:33;;;;;;;;;;;;;;;13.19;100.00;100771.19;3057227;19;985;-50
2022/07/29 02:06:35;;;;;;;;;;;;;;;13.18;100.00;100780.19;3056110;19;1032;-51
2022/07/29 02:07:40;;;;;;;;;;;;;;;13.17;100.00;100768.59;3056435;19;925;-52
2022/07/29 02:08:42;;;;;;;;;;;;;;;13.17;100.00;100779.31;3056212;19;914;-49
2022/07/29 02:09:46;;;;;;;;;;;;;;;13.19;100.00;100776.56;3056275;19;1049;-49
2022/07/29 02:10:48;;;;;;;;;;;;;;;13.18;100.00;100781.03;3056317;19;1315;-50
2022/07/29 02:11:54;;;;;;;;;;;;;;;13.20;100.00;100779.13;3056763;19;1593;-51
2022/07/29 02:12:56;;;;;;;;;;;;;;;13.20;100.00;100773.78;3056165;19;1164;-52
2022/07/29 02:14:00;;;;;;;;;;;;;;;13.21;100.00;100774.63;3057181;19;944;-52
2022/07/29 02:15:03;;;;;;;;;;;;;;;13.19;100.00;100769.38;3057020;19;913;-49
2022/07/29 02:16:08;;;;;;;;;;;;;;;13.20;100.00;100773.78;3056405;19;952;-50
2022/07/29 02:17:11;;;;;;;;;;;;;;;13.18;100.00;100764.97;3055999;19;977;-48
2022/07/29 02:18:17;;;;;;;;;;;;;;;13.18;100.00;100764.09;3056061;19;1044;-51
2022/07/29 02:19:19;;;;;;;;;;;;;;;13.19;100.00;100764.00;3056051;19;960;-51
2022/07/29 02:20:24;;;;;;;;;;;;;;;13.17;100.00;100768.59;3056306;19;885;-52
2022/07/29 02:21:27;;;;;;;;;;;;;;;13.17;100.00;100768.59;3056934;19;945;-50
2022/07/29 02:22:32;;;;;;;;;;;;;;;13.18;100.00;100769.47;3056853;19;957;-52
2022/07/29 02:23:34;;;;;;;;;;;;;;;13.18;100.00;100769.47;3055558;19;1873;-51
2022/07/29 02:24:54;;;;;;;;;;;;;;;13.17;100.00;100763.25;3055530;19;1240;-51
2022/07/29 02:25:56;;;;;;;;;;;;;;;13.18;100.00;100764.09;3055202;19;966;-49
2022/07/29 02:27:01;;;;;;;;;;;;;;;13.17;100.00;100760.56;3056148;19;989;-52
2022/07/29 02:28:03;;;;;;;;;;;;;;;13.16;100.00;100756.16;3055734;19;1222;-50
2022/07/29 02:29:07;;;;;;;;;;;;;;;13.17;100.00;100752.53;3056054;19;1043;-52
2022/07/29 02:30:11;;;;;;;;;;;;;;;13.18;100.00;100756.06;3055976;19;1173;-50
2022/07/29 02:31:15;;;;;;;;;;;;;;;13.16;100.00;100760.69;3055928;19;905;-50
2022/07/29 02:32:17;;;;;;;;;;;;;;;13.13;100.00;100761.72;3055637;19;976;-52
2022/07/29 02:33:22;;;;;;;;;;;;;;;13.15;100.00;100764.34;3056066;19;874;-52
2022/07/29 02:34:24;;;;;;;;;;;;;;;13.16;100.00;100763.38;3055857;19;1020;-49
2022/07/29 02:35:28;;;;;;;;;;;;;;;13.17;100.00;100765.94;3055839;19;1802;-52
2022/07/29 02:36:35;;;;;;;;;;;;;;;13.17;100.00;100757.88;3055608;19;1416;-52
2022/07/29 02:37:40;;;;;;;;;;;;;;;13.17;100.00;100762.38;3055957;19;893;-50
2022/07/29 02:38:51;;;;;;;;;;;;;;;13.16;100.00;100760.69;3055659;19;1512;-54
2022/07/29 02:39:56;;;;;;;;;;;;;;;13.17;100.00;100771.28;3055607;19;901;-53
2022/07/29 02:40:58;;;;;;;;;;;;;;;13.16;100.00;100761.53;3056159;19;1002;-49
2022/07/29 02:42:06;;;;;;;;;;;;;;;13.17;100.00;100760.56;3055885;19;1124;-50
2022/07/29 02:43:11;;;;;;;;;;;;;;;13.18;100.00;100767.66;3055053;19;995;-54
2022/07/29 02:44:16;;;;;;;;;;;;;;;13.19;100.00;100766.69;3055217;19;1866;-50
2022/07/29 02:45:19;;;;;;;;;;;;;;;13.19;100.00;100761.34;3055756;19;1003;-51
2022/07/29 02:46:26;;;;;;;;;;;;;;;13.21;100.00;100764.78;3055675;19;877;-51
2022/07/29 02:47:45;;;;;;;;;;;;;;;13.22;100.00;100761.13;3056909;19;936;-50
2022/07/29 02:48:49;;;;;;;;;;;;;;;13.22;100.00;100766.50;3055460;19;982;-49
2022/07/29 02:50:01;;;;;;;;;;;;;;;13.23;100.00;100768.22;3055625;19;982;-50
2022/07/29 02:51:23;;;;;;;;;;;;;;;13.23;100.00;100772.72;3055595;19;901;-48
2022/07/29 02:52:59;;;;;;;;;;;;;;;13.24;100.00;100769.94;3056236;19;996;-50
2022/07/29 02:55:34;;;;;;;;;;;;;;;13.26;100.00;100772.50;3052193;19;1760;-48
2022/07/29 02:56:37;;;;;;;;;;;;;;;13.28;100.00;100775.94;3054468;19;1592;-50
2022/07/29 02:58:01;;;;;;;;;;;;;;;13.28;100.00;100776.78;3055670;19;872;-49
2022/07/29 02:59:04;;;;;;;;;;;;;;;13.30;100.00;100769.50;3054878;19;980;-50
2022/07/29 03:00:09;;;;;;;;;;;;;;;13.31;100.00;100770.34;3055103;19;1735;-48
2022/07/29 03:01:15;;;;;;;;;;;;;;;13.31;100.00;100768.53;3054781;19;944;-50
2022/07/29 03:02:25;;;;;;;;;;;;;;;13.36;100.00;100767.38;3055506;19;952;-48
2022/07/29 03:03:29;;;;;;;;;;;;;;;13.38;100.00;100765.44;3056687;19;948;-49
2022/07/29 03:04:34;;;;;;;;;;;;;;;13.40;100.00;100767.06;3054805;19;1861;-50
2022/07/29 03:05:36;;;;;;;;;;;;;;;13.44;100.00;100768.56;3054817;19;980;-48
2022/07/29 03:06:41;;;;;;;;;;;;;;;13.49;100.00;100760.19;3055072;19;838;-50
2022/07/29 03:07:48;;;;;;;;;;;;;;;13.54;100.00;100771.44;3054887;19;998;-51
2022/07/29 03:08:50;;;;;;;;;;;;;;;13.58;100.00;100772.97;3054991;19;948;-50
2022/07/29 03:09:54;;;;;;;;;;;;;;;13.62;100.00;100769.97;3054707;19;1838;-50
2022/07/29 03:10:56;;;;;;;;;;;;;;;13.67;100.00;100766.94;3055472;19;778;-48
2022/07/29 03:12:00;;;;;;;;;;;;;;;13.71;100.00;100765.78;3054755;19;1683;-48
2022/07/29 03:13:03;;;;;;;;;;;;;;;13.81;100.00;100769.53;3055040;19;1026;-49
2022/07/29 03:14:07;;;;;;;;;;;;;;;13.95;100.00;100772.09;3056837;19;1007;-48
2022/07/29 03:15:10;;;;;;;;;;;;;;;14.17;100.00;100775.91;3056179;19;1940;-49
2022/07/29 03:16:15;;;;;;;;;;;;;;;14.41;100.00;100774.19;3055827;19;1547;-50
2022/07/29 03:17:17;;;;;;;;;;;;;;;14.72;100.00;100784.41;3054919;19;1204;-48
2022/07/29 03:18:21;;;;;;;;;;;;;;;15.03;100.00;100782.94;3056048;19;952;-48
2022/07/29 03:19:23;;;;;;;;;;;;;;;15.33;100.00;100795.91;3054832;19;872;-48
2022/07/29 03:20:28;;;;;;;;;;;;;;;15.64;100.00;100809.72;3054723;19;1051;-47
2022/07/29 03:21:30;;;;;;;;;;;;;;;15.95;100.00;100816.22;3054903;19;881;-46
2022/07/29 03:22:35;;;;;;;;;;;;;;;16.24;100.00;100822.00;3055011;19;936;-49
2022/07/29 03:23:36;;;;;;;;;;;;;;;16.54;100.00;100839.25;3057761;19;967;-48
2022/07/29 03:24:41;;;;;;;;;;;;;;;16.84;100.00;100851.25;3055216;19;1844;-48
2022/07/29 03:25:43;;;;;;;;;;;;;;;17.08;100.00;100861.84;3055670;19;967;-49
2022/07/29 03:26:47;;;;;;;;;;;;;;;17.24;100.00;100892.84;3056230;19;821;-48
2022/07/29 03:27:52;;;;;;;;;;;;;;;17.45;100.00;100900.97;3054761;19;960;-48
2022/07/29 03:28:54;;;;;;;;;;;;;;;17.75;100.00;100912.91;3055189;19;939;-46
2022/07/29 03:29:59;;;;;;;;;;;;;;;18.03;100.00;100925.75;3055685;19;909;-50
2022/07/29 03:31:00;;;;;;;;;;;;;;;18.27;100.00;100937.16;3056067;19;1102;-48
2022/07/29 03:32:05;;;;;;;;;;;;;;;18.52;100.00;100946.69;3055591;19;1003;-48
2022/07/29 03:33:09;;;;;;;;;;;;;;;18.80;100.00;100953.25;3055208;19;820;-49
2022/07/29 03:34:16;;;;;;;;;;;;;;;19.08;100.00;100966.00;3054752;19;905;-49
2022/07/29 03:35:19;;;;;;;;;;;;;;;19.39;100.00;100969.53;3055672;19;917;-46
2022/07/29 03:36:24;;;;;;;;;;;;;;;19.71;100.00;100974.72;3055663;19;1668;-47
2022/07/29 03:37:26;;;;;;;;;;;;;;;20.06;100.00;100984.13;3058836;19;936;-49
2022/07/29 03:38:31;;;;;;;;;;;;;;;20.33;100.00;100976.13;3058721;19;916;-49
2022/07/29 03:39:35;;;;;;;;;;;;;;;20.64;100.00;100989.53;3058881;19;964;-48
2022/07/29 03:40:47;;;;;;;;;;;;;;;20.93;100.00;100990.25;3058494;19;1775;-49
2022/07/29 03:41:49;;;;;;;;;;;;;;;21.30;100.00;100986.69;3057861;19;957;-50
2022/07/29 03:42:54;;;;;;;;;;;;;;;21.59;100.00;100992.81;3057366;19;964;-46
2022/07/29 03:43:56;;;;;;;;;;;;;;;21.89;100.00;100995.16;3057792;19;1118;-48
2022/07/29 03:45:01;;;;;;;;;;;;;;;22.09;100.00;101005.91;3057106;19;1842;-50
2022/07/29 03:46:03;;;;;;;;;;;;;;;22.15;100.00;101016.16;3057892;19;884;-49
2022/07/29 03:47:12;;;;;;;;;;;;;;;22.37;100.00;101015.66;3057655;19;837;-48
2022/07/29 03:48:14;;;;;;;;;;;;;;;22.79;100.00;101021.28;3057813;19;976;-48
2022/07/29 03:49:18;;;;;;;;;;;;;;;23.16;100.00;101018.25;3057463;19;1622;-48
2022/07/29 03:50:21;;;;;;;;;;;;;;;23.51;100.00;101016.38;3057941;19;837;-48
2022/07/29 03:51:25;;;;;;;;;;;;;;;23.81;100.00;101020.34;3057477;19;977;-47
2022/07/29 03:52:37;;;;;;;;;;;;;;;24.17;100.00;101013.59;3058005;19;956;-49
2022/07/29 03:53:41;;;;;;;;;;;;;;;24.54;100.00;101021.28;3057715;19;1004;-47
2022/07/29 03:54:43;;;;;;;;;;;;;;;24.82;100.00;101034.56;3057617;19;1031;-46
2022/07/29 03:55:58;;;;;;;;;;;;;;;25.03;97.94;101026.69;3056242;19;1683;-46
2022/07/29 03:57:00;;;;;;;;;;;;;;;25.31;94.83;101033.44;3058365;19;1170;-48
2022/07/29 03:58:04;;;;;;;;;;;;;;;25.57;92.86;101030.41;3059244;19;961;-47
2022/07/29 03:59:06;;;;;;;;;;;;;;;25.74;90.47;101020.25;3057469;19;944;-48
2022/07/29 04:00:11;;;;;;;;;;;;;;;25.83;87.72;101019.19;3057458;19;1676;-47
2022/07/29 04:01:13;;;;;;;;;;;;;;;26.05;86.39;101022.97;3057641;19;873;-47
2022/07/29 04:02:17;;;;;;;;;;;;;;;26.29;85.44;101030.19;3057756;19;892;-47
2022/07/29 04:03:24;;;;;;;;;;;;;;;26.51;83.94;101029.28;3057115;19;952;-48
2022/07/29 04:04:28;;;;;;;;;;;;;;;26.75;82.84;101031.81;3057370;19;1043;-48
2022/07/29 04:05:30;;;;;;;;;;;;;;;26.98;81.25;101041.88;3056395;19;1874;-50
2022/07/29 04:06:44;;;;;;;;;;;;;;;27.22;79.95;101047.06;3057351;19;856;-46
2022/07/29 04:07:49;;;;;;;;;;;;;;;27.57;77.93;101038.09;3058193;19;976;-49
2022/07/29 04:08:53;;;;;;;;;;;;;;;27.86;76.88;101041.81;3058330;19;932;-48
2022/07/29 04:09:55;;;;;;;;;;;;;;;28.19;75.62;101037.56;3058222;19;923;-48
2022/07/29 04:11:00;;;;;;;;;;;;;;;28.50;74.15;101044.63;3058336;19;885;-49
2022/07/29 04:12:05;;;;;;;;;;;;;;;28.81;72.65;101042.34;3057398;19;885;-48
2022/07/29 04:13:06;;;;;;;;;;;;;;;29.07;70.84;101043.59;3057008;19;1046;-47
2022/07/29 04:14:11;;;;;;;;;;;;;;;29.32;69.45;101047.56;3058193;19;826;-49
2022/07/29 04:15:13;;;;;;;;;;;;;;;29.53;67.85;101047.47;3058247;19;925;-48
2022/07/29 04:16:18;;;;;;;;;;;;;;;29.81;67.10;101049.28;3057927;19;865;-45
2022/07/29 04:17:22;;;;;;;;;;;;;;;30.04;65.87;101049.81;3058395;19;1060;-48
2022/07/29 04:18:24;;;;;;;;;;;;;;;30.22;63.90;101058.31;3058315;19;734;-50
2022/07/29 04:19:28;;;;;;;;;;;;;;;30.45;63.58;101041.38;3058453;19;972;-45
2022/07/29 04:20:30;;;;;;;;;;;;;;;30.57;62.33;101049.88;3058078;19;881;-48
2022/07/29 04:21:39;;;;;;;;;;;;;;;30.72;62.27;101058.78;3058027;19;1234;-49
2022/07/29 04:22:41;;;;;;;;;;;;;;;30.81;61.36;101046.50;3057987;19;948;-49
2022/07/29 04:23:49;;;;;;;;;;;;;;;30.91;61.44;101057.97;3058114;19;878;-48
2022/07/29 04:24:54;;;;;;;;;;;;;;;31.09;60.87;101055.41;3057988;19;931;-48
2022/07/29 04:26:09;;;;;;;;;;;;;;;31.38;60.89;101050.47;3057009;19;1900;-46
2022/07/29 04:27:11;;;;;;;;;;;;;;;31.45;58.81;101054.03;3058276;19;901;-47
2022/07/29 04:28:15;;;;;;;;;;;;;;;31.59;59.51;101061.19;3057979;19;960;-48
2022/07/29 04:29:17;;;;;;;;;;;;;;;31.68;58.31;101056.31;3058151;19;968;-49
2022/07/29 04:30:22;;;;;;;;;;;;;;;31.79;58.53;101061.97;3058059;19;958;-49
2022/07/29 04:31:26;;;;;;;;;;;;;;;31.92;57.79;101049.19;3058243;19;939;-48
2022/07/29 04:32:28;;;;;;;;;;;;;;;32.03;58.06;101059.53;3057999;19;1038;-49
2022/07/29 04:33:33;;;;;;;;;;;;;;;32.12;56.66;101049.94;3057785;19;900;-48
2022/07/29 04:34:37;;;;;;;;;;;;;;;32.20;56.55;101046.91;3057883;19;1125;-46
2022/07/29 04:35:39;;;;;;;;;;;;;;;32.19;55.74;101046.06;3057898;19;1003;-48
2022/07/29 04:36:55;;;;;;;;;;;;;;;32.35;56.48;101044.69;3057726;19;948;-48
2022/07/29 04:37:57;;;;;;;;;;;;;;;32.35;56.56;101050.22;3058253;19;825;-47
2022/07/29 04:39:02;;;;;;;;;;;;;;;32.43;56.05;101047.19;3057740;19;1004;-48
2022/07/29 04:40:04;;;;;;;;;;;;;;;32.58;56.42;101048.75;3057864;19;913;-47
2022/07/29 04:41:08;;;;;;;;;;;;;;;32.53;55.08;101044.75;3057797;19;951;-47
2022/07/29 04:42:11;;;;;;;;;;;;;;;32.67;55.46;101058.47;3057953;19;972;-46
2022/07/29 04:43:17;;;;;;;;;;;;;;;32.71;55.04;101060.59;3057568;19;1079;-50
2022/07/29 04:44:25;;;;;;;;;;;;;;;32.75;55.10;101058.19;3057895;19;1047;-50
2022/07/29 04:45:29;;;;;;;;;;;;;;;32.83;55.05;101063.47;3057721;19;1015;-48
2022/07/29 04:46:34;;;;;;;;;;;;;;;32.77;54.04;101064.34;3057917;19;912;-45
2022/07/29 04:47:36;;;;;;;;;;;;;;;32.54;54.53;101063.03;3057668;19;892;-47
2022/07/29 04:48:40;;;;;;;;;;;;;;;32.73;55.22;101060.34;3056125;19;1027;-46
2022/07/29 04:49:43;;;;;;;;;;;;;;;32.68;54.32;101054.63;3057541;19;1063;-48
2022/07/29 04:50:47;;;;;;;;;;;;;;;32.73;54.53;101057.56;3057673;19;1682;-45
2022/07/29 04:51:52;;;;;;;;;;;;;;;32.70;54.41;101058.88;3057436;19;972;-47
2022/07/29 04:52:53;;;;;;;;;;;;;;;32.70;54.16;101069.06;3057838;19;976;-48
2022/07/29 04:53:58;;;;;;;;;;;;;;;32.70;54.04;101069.06;3057574;19;912;-50
2022/07/29 04:55:00;;;;;;;;;;;;;;;32.82;54.44;101073.69;3057556;19;1165;-51
2022/07/29 04:56:04;;;;;;;;;;;;;;;32.75;53.76;101072.03;3057563;19;964;-51
2022/07/29 04:57:06;;;;;;;;;;;;;;;32.58;53.50;101062.59;3057782;19;943;-48
2022/07/29 04:58:10;;;;;;;;;;;;;;;32.44;54.49;101059.91;3057545;19;936;-50
2022/07/29 04:59:12;;;;;;;;;;;;;;;32.37;54.10;101056.34;3057689;19;932;-51
2022/07/29 05:00:17;;;;;;;;;;;;;;;32.36;54.38;101070.41;3057382;19;1269;-47
2022/07/29 05:01:19;;;;;;;;;;;;;;;32.24;53.76;101066.66;3057790;19;832;-49
2022/07/29 05:02:24;;;;;;;;;;;;;;;32.03;55.36;101056.75;3057579;19;976;-50
2022/07/29 05:03:26;;;;;;;;;;;;;;;31.82;55.43;101061.56;3057880;19;939;-48
2022/07/29 05:04:30;;;;;;;;;;;;;;;31.57;55.11;101068.84;3057566;19;959;-49
2022/07/29 05:05:32;;;;;;;;;;;;;;;31.43;56.37;101061.66;3057712;19;1039;-48
2022/07/29 05:06:36;;;;;;;;;;;;;;;31.00;56.74;101061.31;3056446;19;1839;-50
2022/07/29 05:07:38;;;;;;;;;;;;;;;30.66;58.39;101063.28;3057627;19;877;-49
2022/07/29 05:08:43;;;;;;;;;;;;;;;29.48;60.46;101066.47;3057517;19;889;-51
2022/07/29 05:09:44;;;;;;;;;;;;;;;27.63;65.98;101069.41;3057663;19;861;-52
2022/07/29 05:10:49;;;;;;;;;;;;;;;26.30;72.19;101048.31;3057099;19;1685;-49
2022/07/29 05:11:51;;;;;;;;;;;;;;;25.57;79.84;101051.44;3057524;19;837;-48
2022/07/29 05:12:55;;;;;;;;;;;;;;;24.92;85.30;101048.88;3057414;19;904;-50
2022/07/29 05:13:57;;;;;;;;;;;;;;;24.19;90.32;101051.59;3057511;19;884;-47
2022/07/29 05:15:01;;;;;;;;;;;;;;;23.74;95.69;101052.91;3057141;19;1729;-47
2022/07/29 05:16:03;;;;;;;;;;;;;;;23.35;100.00;101056.13;3057147;19;1036;-48
2022/07/29 05:17:08;;;;;;;;;;;;;;;22.74;100.00;101050.78;3057317;19;884;-48
2022/07/29 05:18:10;;;;;;;;;;;;;;;22.36;100.00;101052.00;3057180;19;920;-45
2022/07/29 05:19:14;;;;;;;;;;;;;;;22.11;100.00;101039.22;3057502;19;944;-47
2022/07/29 05:20:18;;;;;;;;;;;;;;;21.99;100.00;101045.88;3057144;19;916;-50
2022/07/29 05:21:23;;;;;;;;;;;;;;;21.75;100.00;101047.31;3057519;19;955;-48
2022/07/29 05:22:25;;;;;;;;;;;;;;;21.60;100.00;101046.13;3057310;19;821;-49
2022/07/29 05:23:29;;;;;;;;;;;;;;;21.48;100.00;101039.19;3057213;19;968;-50
2022/07/29 05:24:31;;;;;;;;;;;;;;;21.32;100.00;101034.41;3057011;19;957;-46
2022/07/29 05:25:36;;;;;;;;;;;;;;;21.14;100.00;101034.31;3057442;19;884;-49
2022/07/29 05:26:45;;;;;;;;;;;;;;;20.92;100.00;101033.81;3055587;19;1873;-47
2022/07/29 05:27:49;;;;;;;;;;;;;;;20.85;100.00;101037.13;3056283;19;1043;-47
2022/07/29 05:28:51;;;;;;;;;;;;;;;20.78;100.00;101033.28;3057229;19;876;-46
2022/07/29 05:29:56;;;;;;;;;;;;;;;20.78;100.00;101027.00;3057083;19;1742;-47
2022/07/29 05:30:58;;;;;;;;;;;;;;;20.64;100.00;101012.09;3057928;19;1257;-50
2022/07/29 05:32:03;;;;;;;;;;;;;;;20.65;100.00;101021.06;3058362;19;1200;-49
2022/07/29 05:33:04;;;;;;;;;;;;;;;20.60;100.00;101020.63;3056726;19;1317;-50
2022/07/29 05:34:09;;;;;;;;;;;;;;;20.58;100.00;101020.78;3056963;19;1777;-49
2022/07/29 05:35:11;;;;;;;;;;;;;;;20.49;100.00;101019.81;3057107;19;975;-50
2022/07/29 05:36:16;;;;;;;;;;;;;;;20.46;100.00;101019.25;3056069;19;1431;-49
2022/07/29 05:37:19;;;;;;;;;;;;;;;20.35;100.00;101020.25;3058871;19;829;-48
2022/07/29 05:38:23;;;;;;;;;;;;;;;20.25;100.00;101008.53;3057086;19;943;-46
2022/07/29 05:39:25;;;;;;;;;;;;;;;20.25;100.00;101018.53;3057094;19;905;-46
2022/07/29 05:40:50;;;;;;;;;;;;;;;20.25;100.00;101011.25;3057009;19;1167;-47
2022/07/29 05:41:52;;;;;;;;;;;;;;;20.16;100.00;101016.69;3056721;19;964;-47